Webcam

2019/08/23 23:20 EBBR 232320Z 06002KT CAVOK 17/14 Q1022 NOSIG

Webcam

--- Refresh now ---